Barbarossa — IBJD — position and weather

sailwx.info

Track history (hours):
 
Tides and Currents Weather Stations Pressure Air Temp Water Temp Dewpoint Dewpoint Depression Visibility Wind Speed Wind Dir Waves Ship Positions

Barbarossa

Last reported at 2018-Oct-18 15:37 UTC. Time now 2018-Oct-20 01:59 UTC.
Position N 37°33' E 023°44'.

Length 294 m; draft 8.1 m.

Type: Ship. MMSI: 247282900.

Date/timePositionNaut miles runAvg speedWind from/ knotsBaromVisibWave heightAir tempDewpointWater temp
2018-Oct-18 15:37N 37°33' E 023°44'218.8
2018-Oct-18 15:30N 37°35' E 023°44'818.4
2018-Oct-18 15:03N 37°43' E 023°40'118.2
2018-Oct-18 15:00N 37°43' E 023°39'917.5
2018-Oct-18 14:30N 37°52' E 023°35'5 9.3
2018-Oct-18 13:59N 37°56' E 023°37'0 0.8
2018-Oct-18 13:29N 37°56' E 023°38'0 0.0
2018-Oct-18 13:02N 37°56' E 023°38'0 0.0
2018-Oct-18 12:56N 37°56' E 023°38'0 0.0
2018-Oct-18 12:29N 37°56' E 023°38'0 0.0
2018-Oct-18 12:02N 37°56' E 023°38'0 0.0
2018-Oct-18 11:59N 37°56' E 023°38'0 0.0
2018-Oct-18 11:29N 37°56' E 023°38'0 0.0
2018-Oct-18 11:02N 37°56' E 023°38'0 0.0
2018-Oct-18 10:56N 37°56' E 023°38'0 0.0
2018-Oct-18 10:29N 37°56' E 023°38'0 0.0
2018-Oct-18 10:02N 37°56' E 023°38'0 0.1
2018-Oct-18 09:59N 37°56' E 023°38'0 0.0
2018-Oct-18 09:29N 37°56' E 023°38'0 0.0
2018-Oct-18 09:02N 37°56' E 023°38'0 0.0
2018-Oct-18 08:59N 37°56' E 023°38'0 0.0
2018-Oct-18 08:29N 37°56' E 023°38'0 0.0
2018-Oct-18 08:02N 37°56' E 023°38'0 0.0
2018-Oct-18 07:59N 37°56' E 023°38'0 0.0
2018-Oct-18 07:29N 37°56' E 023°38'0 0.0
2018-Oct-18 07:02N 37°56' E 023°38'0 0.0
2018-Oct-18 06:59N 37°56' E 023°38'0 0.0
2018-Oct-18 06:29N 37°56' E 023°38'0 0.0
2018-Oct-18 06:02N 37°56' E 023°38'0 0.0
2018-Oct-18 05:59N 37°56' E 023°38'0 0.0
2018-Oct-18 05:29N 37°56' E 023°38'0 0.0
2018-Oct-18 05:02N 37°56' E 023°38'0 0.0
2018-Oct-18 04:59N 37°56' E 023°38'0 0.0
2018-Oct-18 04:29N 37°56' E 023°38'0 0.0
2018-Oct-18 04:02N 37°56' E 023°38'0 0.0
2018-Oct-18 03:59N 37°56' E 023°38'0 1.1
2018-Oct-18 03:30N 37°56' E 023°37'1 2.9
2018-Oct-18 03:03N 37°55' E 023°36'0 2.5
2018-Oct-18 03:00N 37°55' E 023°36'612.8
2018-Oct-18 02:30N 37°49' E 023°40'716.5
2018-Oct-18 02:03N 37°42' E 023°44'113.6
2018-Oct-18 02:00N 37°42' E 023°44'713.4
2018-Oct-18 01:30N 37°36' E 023°47'613.7
2018-Oct-18 01:03N 37°30' E 023°50'114.2
2018-Oct-18 01:01N 37°29' E 023°50'1513.7
2018-Oct-17 23:57N 37°15' E 023°54'  
2018-Oct-14 21:12N 44°15' E 013°11'918.3
2018-Oct-14 20:43N 44°24' E 013°07'1318.1
2018-Oct-14 19:59N 44°36' E 013°02'917.8
2018-Oct-14 19:30N 44°44' E 012°58'818.0
2018-Oct-14 19:03N 44°51' E 012°53'118.0
2018-Oct-14 19:00N 44°52' E 012°52'918.2
2018-Oct-14 18:30N 45°00' E 012°47'817.8
2018-Oct-14 18:04N 45°07' E 012°41'118.1
2018-Oct-14 18:00N 45°08' E 012°40'917.2
2018-Oct-14 17:30N 45°13' E 012°30'816.9
2018-Oct-14 17:03N 45°21' E 012°30'114.3
2018-Oct-14 17:00N 45°21' E 012°30'510.2
2018-Oct-14 16:30N 45°25' E 012°26'3 5.6
2018-Oct-14 16:03N 45°25' E 012°22'0 5.9
2018-Oct-14 16:00N 45°25' E 012°22'2 4.5
2018-Oct-14 15:30N 45°26' E 012°18'0 1.0
2018-Oct-14 15:03N 45°26' E 012°19'0 0.0
2018-Oct-14 14:57N 45°26' E 012°19'0 0.0
2018-Oct-14 14:30N 45°26' E 012°19'0 0.0
2018-Oct-14 14:00N 45°26' E 012°19'0 0.0
2018-Oct-14 13:30N 45°26' E 012°19'0 0.0
2018-Oct-14 13:03N 45°26' E 012°19'0 0.0
2018-Oct-14 13:00N 45°26' E 012°19'0 0.0
2018-Oct-14 12:27N 45°26' E 012°19'0 0.0
2018-Oct-14 12:03N 45°26' E 012°19'0 0.0
2018-Oct-14 12:00N 45°26' E 012°19'0 0.0
2018-Oct-14 11:27N 45°26' E 012°19'0 0.0
2018-Oct-14 11:00N 45°26' E 012°19'0 0.0
2018-Oct-14 10:30N 45°26' E 012°19'0 0.0
2018-Oct-14 10:00N 45°26' E 012°19'0 0.0
2018-Oct-14 09:30N 45°26' E 012°19'0 0.0
2018-Oct-14 09:03N 45°26' E 012°19'0 0.0
2018-Oct-14 09:00N 45°26' E 012°19'0 0.0
2018-Oct-14 08:30N 45°26' E 012°19'0 0.0
2018-Oct-14 08:03N 45°26' E 012°19'0 0.0
2018-Oct-14 08:00N 45°26' E 012°19'0 0.0
2018-Oct-14 07:31N 45°26' E 012°19'0 0.5
2018-Oct-14 07:03N 45°26' E 012°19'0 1.8
2018-Oct-14 07:00N 45°26' E 012°18'2 3.7
2018-Oct-14 06:30N 45°26' E 012°21'2 4.8
2018-Oct-14 06:03N 45°26' E 012°24'0 7.7
2018-Oct-14 06:00N 45°26' E 012°25'4 7.1
2018-Oct-14 05:30N 45°24' E 012°29'4 9.8
2018-Oct-14 05:03N 45°20' E 012°32'114.9
2018-Oct-14 05:00N 45°19' E 012°32'714.5
2018-Oct-14 04:30N 45°14' E 012°38'715.6
2018-Oct-14 04:03N 45°09' E 012°46'115.4
2018-Oct-14 04:00N 45°09' E 012°47'815.5
2018-Oct-14 03:30N 45°02' E 012°52'715.6
2018-Oct-14 03:03N 44°56' E 012°56'115.8
2018-Oct-14 03:00N 44°55' E 012°56'815.9
2018-Oct-14 02:30N 44°48' E 013°01'715.7
2018-Oct-14 02:03N 44°41' E 013°04'115.5
2018-Oct-14 02:00N 44°40' E 013°04'815.6
2018-Oct-14 01:30N 44°33' E 013°08'715.4
2018-Oct-14 01:03N 44°26' E 013°11'117.5
2018-Oct-14 01:00N 44°25' E 013°11'918.2
2018-Oct-14 00:30N 44°17' E 013°16'1318.8
2018-Oct-13 23:49N 44°09' E 013°30'618.7
2018-Oct-13 23:30N 44°06' E 013°37'818.7
2018-Oct-13 23:03N 44°00' E 013°46'118.7
2018-Oct-13 23:00N 43°60' E 013°47'918.8
2018-Oct-13 22:30N 43°54' E 013°58'818.5
2018-Oct-13 22:03N 43°50' E 014°07'118.6
2018-Oct-13 22:00N 43°49' E 014°09'918.5
2018-Oct-13 21:30N 43°44' E 014°19'58011.2
2018-Oct-11 17:54N 37°02' E 023°28'2515.0
2018-Oct-11 16:14N 37°23' E 023°44'715.1
2018-Oct-11 15:47N 37°30' E 023°44'615.4
2018-Oct-11 15:23N 37°36' E 023°43'515.7
2018-Oct-11 15:03N 37°41' E 023°41'115.8
2018-Oct-11 15:00N 37°41' E 023°41'815.4
2018-Oct-11 14:30N 37°48' E 023°36'8 8.1
2018-Oct-11 13:28N 37°56' E 023°38'0 0.0
2018-Oct-11 13:01N 37°56' E 023°38'0 0.0
2018-Oct-11 12:58N 37°56' E 023°38'0 0.0
2018-Oct-11 12:28N 37°56' E 023°38'0 0.0
2018-Oct-11 12:01N 37°56' E 023°38'0 0.0
2018-Oct-11 11:58N 37°56' E 023°38'0 0.0
2018-Oct-11 11:28N 37°56' E 023°38'0 0.0
2018-Oct-11 11:01N 37°56' E 023°38'0 0.0
2018-Oct-11 10:58N 37°56' E 023°38'0 0.0
2018-Oct-11 10:28N 37°56' E 023°38'0 0.0
2018-Oct-11 10:01N 37°56' E 023°38'0 0.0
2018-Oct-11 09:58N 37°56' E 023°38'0 0.0
2018-Oct-11 09:28N 37°56' E 023°38'0 0.0
2018-Oct-11 09:01N 37°56' E 023°38'0 0.1
2018-Oct-11 08:58N 37°56' E 023°38'0 0.0
2018-Oct-11 08:04N 37°56' E 023°38'0 0.0
2018-Oct-11 08:01N 37°56' E 023°38'0 0.0
2018-Oct-11 07:58N 37°56' E 023°38'0 0.0
2018-Oct-11 07:28N 37°56' E 023°38'0 0.0
2018-Oct-11 07:01N 37°56' E 023°38'0 0.0
2018-Oct-11 06:58N 37°56' E 023°38'0 0.0
2018-Oct-11 06:28N 37°56' E 023°38'0 0.0
2018-Oct-11 06:03N 37°56' E 023°38'0 0.0
2018-Oct-11 06:00N 37°56' E 023°38'0 0.0
2018-Oct-11 05:30N 37°56' E 023°38'0 0.0
2018-Oct-11 05:03N 37°56' E 023°38'0 0.1
2018-Oct-11 05:00N 37°56' E 023°38'0 0.0
2018-Oct-11 04:30N 37°56' E 023°38'0 0.5
2018-Oct-11 04:03N 37°56' E 023°37'0 2.3
2018-Oct-11 04:00N 37°56' E 023°37'1 2.0
2018-Oct-11 03:30N 37°55' E 023°37'1 2.1
2018-Oct-11 03:03N 37°54' E 023°37'0 3.9
2018-Oct-11 03:00N 37°54' E 023°37'510.1
2018-Oct-11 02:31N 37°50' E 023°40'714.9
2018-Oct-11 02:04N 37°44' E 023°43'114.6
2018-Oct-11 02:01N 37°43' E 023°43'714.5
2018-Oct-11 01:31N 37°36' E 023°47'714.4
2018-Oct-11 01:03N 37°30' E 023°49'113.4
2018-Oct-11 01:00N 37°29' E 023°49'1013.9
2018-Oct-11 00:17N 37°20' E 023°52'  
Track history (hours):
 
Tides and Currents Weather Stations Pressure Air Temp Water Temp Dewpoint Dewpoint Depression Visibility Wind Speed Wind Dir Waves Ship Positions

Barbarossa

Last reported at 2018-Oct-18 15:37 UTC. Time now 2018-Oct-20 01:59 UTC.
Position N 37°33' E 023°44'.

Length 294 m; draft 8.1 m.

Type: Ship. MMSI: 247282900.

Date/timePositionNaut miles runAvg speedWind from/ knotsBaromVisibWave heightAir tempDewpointWater temp
2018-Oct-18 15:37N 37°33' E 023°44'218.8
2018-Oct-18 15:30N 37°35' E 023°44'818.4
2018-Oct-18 15:03N 37°43' E 023°40'118.2
2018-Oct-18 15:00N 37°43' E 023°39'917.5
2018-Oct-18 14:30N 37°52' E 023°35'5 9.3
2018-Oct-18 13:59N 37°56' E 023°37'0 0.8
2018-Oct-18 13:29N 37°56' E 023°38'0 0.0
2018-Oct-18 13:02N 37°56' E 023°38'0 0.0
2018-Oct-18 12:56N 37°56' E 023°38'0 0.0
2018-Oct-18 12:29N 37°56' E 023°38'0 0.0
2018-Oct-18 12:02N 37°56' E 023°38'0 0.0
2018-Oct-18 11:59N 37°56' E 023°38'0 0.0
2018-Oct-18 11:29N 37°56' E 023°38'0 0.0
2018-Oct-18 11:02N 37°56' E 023°38'0 0.0
2018-Oct-18 10:56N 37°56' E 023°38'0 0.0
2018-Oct-18 10:29N 37°56' E 023°38'0 0.0
2018-Oct-18 10:02N 37°56' E 023°38'0 0.1
2018-Oct-18 09:59N 37°56' E 023°38'0 0.0
2018-Oct-18 09:29N 37°56' E 023°38'0 0.0
2018-Oct-18 09:02N 37°56' E 023°38'0 0.0
2018-Oct-18 08:59N 37°56' E 023°38'0 0.0
2018-Oct-18 08:29N 37°56' E 023°38'0 0.0
2018-Oct-18 08:02N 37°56' E 023°38'0 0.0
2018-Oct-18 07:59N 37°56' E 023°38'0 0.0
2018-Oct-18 07:29N 37°56' E 023°38'0 0.0
2018-Oct-18 07:02N 37°56' E 023°38'0 0.0
2018-Oct-18 06:59N 37°56' E 023°38'0 0.0
2018-Oct-18 06:29N 37°56' E 023°38'0 0.0
2018-Oct-18 06:02N 37°56' E 023°38'0 0.0
2018-Oct-18 05:59N 37°56' E 023°38'0 0.0
2018-Oct-18 05:29N 37°56' E 023°38'0 0.0
2018-Oct-18 05:02N 37°56' E 023°38'0 0.0
2018-Oct-18 04:59N 37°56' E 023°38'0 0.0
2018-Oct-18 04:29N 37°56' E 023°38'0 0.0
2018-Oct-18 04:02N 37°56' E 023°38'0 0.0
2018-Oct-18 03:59N 37°56' E 023°38'0 1.1
2018-Oct-18 03:30N 37°56' E 023°37'1 2.9
2018-Oct-18 03:03N 37°55' E 023°36'0 2.5
2018-Oct-18 03:00N 37°55' E 023°36'612.8
2018-Oct-18 02:30N 37°49' E 023°40'716.5
2018-Oct-18 02:03N 37°42' E 023°44'113.6
2018-Oct-18 02:00N 37°42' E 023°44'713.4
2018-Oct-18 01:30N 37°36' E 023°47'613.7
2018-Oct-18 01:03N 37°30' E 023°50'114.2
2018-Oct-18 01:01N 37°29' E 023°50'1513.7
2018-Oct-17 23:57N 37°15' E 023°54'  
2018-Oct-14 21:12N 44°15' E 013°11'918.3
2018-Oct-14 20:43N 44°24' E 013°07'1318.1
2018-Oct-14 19:59N 44°36' E 013°02'917.8
2018-Oct-14 19:30N 44°44' E 012°58'818.0
2018-Oct-14 19:03N 44°51' E 012°53'118.0
2018-Oct-14 19:00N 44°52' E 012°52'918.2
2018-Oct-14 18:30N 45°00' E 012°47'817.8
2018-Oct-14 18:04N 45°07' E 012°41'118.1
2018-Oct-14 18:00N 45°08' E 012°40'917.2
2018-Oct-14 17:30N 45°13' E 012°30'816.9
2018-Oct-14 17:03N 45°21' E 012°30'114.3
2018-Oct-14 17:00N 45°21' E 012°30'510.2
2018-Oct-14 16:30N 45°25' E 012°26'3 5.6
2018-Oct-14 16:03N 45°25' E 012°22'0 5.9
2018-Oct-14 16:00N 45°25' E 012°22'2 4.5
2018-Oct-14 15:30N 45°26' E 012°18'0 1.0
2018-Oct-14 15:03N 45°26' E 012°19'0 0.0
2018-Oct-14 14:57N 45°26' E 012°19'0 0.0
2018-Oct-14 14:30N 45°26' E 012°19'0 0.0
2018-Oct-14 14:00N 45°26' E 012°19'0 0.0
2018-Oct-14 13:30N 45°26' E 012°19'0 0.0
2018-Oct-14 13:03N 45°26' E 012°19'0 0.0
2018-Oct-14 13:00N 45°26' E 012°19'0 0.0
2018-Oct-14 12:27N 45°26' E 012°19'0 0.0
2018-Oct-14 12:03N 45°26' E 012°19'0 0.0
2018-Oct-14 12:00N 45°26' E 012°19'0 0.0
2018-Oct-14 11:27N 45°26' E 012°19'0 0.0
2018-Oct-14 11:00N 45°26' E 012°19'0 0.0
2018-Oct-14 10:30N 45°26' E 012°19'0 0.0
2018-Oct-14 10:00N 45°26' E 012°19'0 0.0
2018-Oct-14 09:30N 45°26' E 012°19'0 0.0
2018-Oct-14 09:03N 45°26' E 012°19'0 0.0
2018-Oct-14 09:00N 45°26' E 012°19'0 0.0
2018-Oct-14 08:30N 45°26' E 012°19'0 0.0
2018-Oct-14 08:03N 45°26' E 012°19'0 0.0
2018-Oct-14 08:00N 45°26' E 012°19'0 0.0
2018-Oct-14 07:31N 45°26' E 012°19'0 0.5
2018-Oct-14 07:03N 45°26' E 012°19'0 1.8
2018-Oct-14 07:00N 45°26' E 012°18'2 3.7
2018-Oct-14 06:30N 45°26' E 012°21'2 4.8
2018-Oct-14 06:03N 45°26' E 012°24'0 7.7
2018-Oct-14 06:00N 45°26' E 012°25'4 7.1
2018-Oct-14 05:30N 45°24' E 012°29'4 9.8
2018-Oct-14 05:03N 45°20' E 012°32'114.9
2018-Oct-14 05:00N 45°19' E 012°32'714.5
2018-Oct-14 04:30N 45°14' E 012°38'715.6
2018-Oct-14 04:03N 45°09' E 012°46'115.4
2018-Oct-14 04:00N 45°09' E 012°47'815.5
2018-Oct-14 03:30N 45°02' E 012°52'715.6
2018-Oct-14 03:03N 44°56' E 012°56'115.8
2018-Oct-14 03:00N 44°55' E 012°56'815.9
2018-Oct-14 02:30N 44°48' E 013°01'715.7
2018-Oct-14 02:03N 44°41' E 013°04'115.5
2018-Oct-14 02:00N 44°40' E 013°04'815.6
2018-Oct-14 01:30N 44°33' E 013°08'715.4
2018-Oct-14 01:03N 44°26' E 013°11'117.5
2018-Oct-14 01:00N 44°25' E 013°11'918.2
2018-Oct-14 00:30N 44°17' E 013°16'1318.8
2018-Oct-13 23:49N 44°09' E 013°30'618.7
2018-Oct-13 23:30N 44°06' E 013°37'818.7
2018-Oct-13 23:03N 44°00' E 013°46'118.7
2018-Oct-13 23:00N 43°60' E 013°47'918.8
2018-Oct-13 22:30N 43°54' E 013°58'818.5
2018-Oct-13 22:03N 43°50' E 014°07'118.6
2018-Oct-13 22:00N 43°49' E 014°09'918.5
2018-Oct-13 21:30N 43°44' E 014°19'58011.2
2018-Oct-11 17:54N 37°02' E 023°28'2515.0
2018-Oct-11 16:14N 37°23' E 023°44'715.1
2018-Oct-11 15:47N 37°30' E 023°44'615.4
2018-Oct-11 15:23N 37°36' E 023°43'515.7
2018-Oct-11 15:03N 37°41' E 023°41'115.8
2018-Oct-11 15:00N 37°41' E 023°41'815.4
2018-Oct-11 14:30N 37°48' E 023°36'8 8.1
2018-Oct-11 13:28N 37°56' E 023°38'0 0.0
2018-Oct-11 13:01N 37°56' E 023°38'0 0.0
2018-Oct-11 12:58N 37°56' E 023°38'0 0.0
2018-Oct-11 12:28N 37°56' E 023°38'0 0.0
2018-Oct-11 12:01N 37°56' E 023°38'0 0.0
2018-Oct-11 11:58N 37°56' E 023°38'0 0.0
2018-Oct-11 11:28N 37°56' E 023°38'0 0.0
2018-Oct-11 11:01N 37°56' E 023°38'0 0.0
2018-Oct-11 10:58N 37°56' E 023°38'0 0.0
2018-Oct-11 10:28N 37°56' E 023°38'0 0.0
2018-Oct-11 10:01N 37°56' E 023°38'0 0.0
2018-Oct-11 09:58N 37°56' E 023°38'0 0.0
2018-Oct-11 09:28N 37°56' E 023°38'0 0.0
2018-Oct-11 09:01N 37°56' E 023°38'0 0.1
2018-Oct-11 08:58N 37°56' E 023°38'0 0.0
2018-Oct-11 08:04N 37°56' E 023°38'0 0.0
2018-Oct-11 08:01N 37°56' E 023°38'0 0.0
2018-Oct-11 07:58N 37°56' E 023°38'0 0.0
2018-Oct-11 07:28N 37°56' E 023°38'0 0.0
2018-Oct-11 07:01N 37°56' E 023°38'0 0.0
2018-Oct-11 06:58N 37°56' E 023°38'0 0.0
2018-Oct-11 06:28N 37°56' E 023°38'0 0.0
2018-Oct-11 06:03N 37°56' E 023°38'0 0.0
2018-Oct-11 06:00N 37°56' E 023°38'0 0.0
2018-Oct-11 05:30N 37°56' E 023°38'0 0.0
2018-Oct-11 05:03N 37°56' E 023°38'0 0.1
2018-Oct-11 05:00N 37°56' E 023°38'0 0.0
2018-Oct-11 04:30N 37°56' E 023°38'0 0.5
2018-Oct-11 04:03N 37°56' E 023°37'0 2.3
2018-Oct-11 04:00N 37°56' E 023°37'1 2.0
2018-Oct-11 03:30N 37°55' E 023°37'1 2.1
2018-Oct-11 03:03N 37°54' E 023°37'0 3.9
2018-Oct-11 03:00N 37°54' E 023°37'510.1
2018-Oct-11 02:31N 37°50' E 023°40'714.9
2018-Oct-11 02:04N 37°44' E 023°43'114.6
2018-Oct-11 02:01N 37°43' E 023°43'714.5
2018-Oct-11 01:31N 37°36' E 023°47'714.4
2018-Oct-11 01:03N 37°30' E 023°49'113.4
2018-Oct-11 01:00N 37°29' E 023°49'1013.9
2018-Oct-11 00:17N 37°20' E 023°52'  

Dump ship's entire track history